sensor_id;sensor_type;location;lat;lon;timestamp;pressure;altitude;pressure_sealevel;temperature
67822;BMP180;54434;50.096;20.082;2023-05-07T00:00:46;98988.60;;;9.80
67822;BMP180;54434;50.096;20.082;2023-05-07T00:03:28;98990.00;;;9.80
67822;BMP180;54434;50.096;20.082;2023-05-07T00:06:05;98986.00;;;9.78
67822;BMP180;54434;50.096;20.082;2023-05-07T00:08:41;98991.80;;;9.70
67822;BMP180;54434;50.096;20.082;2023-05-07T00:11:18;98992.40;;;9.70
67822;BMP180;54434;50.096;20.082;2023-05-07T00:13:55;98995.20;;;9.70
67822;BMP180;54434;50.096;20.082;2023-05-07T00:16:31;98992.80;;;9.70
67822;BMP180;54434;50.096;20.082;2023-05-07T00:19:08;98992.80;;;9.70
67822;BMP180;54434;50.096;20.082;2023-05-07T00:21:44;98993.40;;;9.70
67822;BMP180;54434;50.096;20.082;2023-05-07T00:24:21;98991.80;;;9.70
67822;BMP180;54434;50.096;20.082;2023-05-07T00:26:57;98990.60;;;9.66
67822;BMP180;54434;50.096;20.082;2023-05-07T00:29:34;98994.40;;;9.60
67822;BMP180;54434;50.096;20.082;2023-05-07T00:32:11;98988.60;;;9.60
67822;BMP180;54434;50.096;20.082;2023-05-07T00:34:48;98991.00;;;9.60
67822;BMP180;54434;50.096;20.082;2023-05-07T00:37:26;98997.80;;;9.60
67822;BMP180;54434;50.096;20.082;2023-05-07T00:40:02;98997.00;;;9.60
67822;BMP180;54434;50.096;20.082;2023-05-07T00:42:42;98998.00;;;9.60
67822;BMP180;54434;50.096;20.082;2023-05-07T00:45:22;99001.00;;;9.58
67822;BMP180;54434;50.096;20.082;2023-05-07T00:48:02;98996.40;;;9.50
67822;BMP180;54434;50.096;20.082;2023-05-07T00:50:39;99006.40;;;9.50
67822;BMP180;54434;50.096;20.082;2023-05-07T00:53:16;99009.00;;;9.50
67822;BMP180;54434;50.096;20.082;2023-05-07T00:55:53;99012.40;;;9.44
67822;BMP180;54434;50.096;20.082;2023-05-07T00:58:30;99013.20;;;9.40
67822;BMP180;54434;50.096;20.082;2023-05-07T01:01:06;99007.40;;;9.40
67822;BMP180;54434;50.096;20.082;2023-05-07T01:03:43;99008.00;;;9.40
67822;BMP180;54434;50.096;20.082;2023-05-07T01:06:22;99004.20;;;9.40
67822;BMP180;54434;50.096;20.082;2023-05-07T01:09:00;99005.40;;;9.32
67822;BMP180;54434;50.096;20.082;2023-05-07T01:11:40;99005.80;;;9.30
67822;BMP180;54434;50.096;20.082;2023-05-07T01:14:18;99007.60;;;9.30
67822;BMP180;54434;50.096;20.082;2023-05-07T01:16:55;99012.40;;;9.30
67822;BMP180;54434;50.096;20.082;2023-05-07T01:19:34;99012.40;;;9.22
67822;BMP180;54434;50.096;20.082;2023-05-07T01:22:14;99011.20;;;9.20
67822;BMP180;54434;50.096;20.082;2023-05-07T01:24:56;99014.80;;;9.20
67822;BMP180;54434;50.096;20.082;2023-05-07T01:27:36;99016.20;;;9.20
67822;BMP180;54434;50.096;20.082;2023-05-07T01:30:14;99021.80;;;9.20
67822;BMP180;54434;50.096;20.082;2023-05-07T01:32:58;99018.40;;;9.10
67822;BMP180;54434;50.096;20.082;2023-05-07T01:35:40;99019.00;;;9.10
67822;BMP180;54434;50.096;20.082;2023-05-07T01:38:18;99025.00;;;9.00
67822;BMP180;54434;50.096;20.082;2023-05-07T01:40:56;99025.40;;;9.00
67822;BMP180;54434;50.096;20.082;2023-05-07T01:43:34;99027.00;;;8.90
67822;BMP180;54434;50.096;20.082;2023-05-07T01:46:11;99030.40;;;8.90
67822;BMP180;54434;50.096;20.082;2023-05-07T01:48:50;99023.20;;;8.86
67822;BMP180;54434;50.096;20.082;2023-05-07T01:51:28;99026.00;;;8.80
67822;BMP180;54434;50.096;20.082;2023-05-07T01:54:06;99026.60;;;8.80
67822;BMP180;54434;50.096;20.082;2023-05-07T01:56:43;99022.80;;;8.70
67822;BMP180;54434;50.096;20.082;2023-05-07T01:59:23;99027.40;;;8.70
67822;BMP180;54434;50.096;20.082;2023-05-07T02:02:00;99027.20;;;8.70
67822;BMP180;54434;50.096;20.082;2023-05-07T02:04:37;99028.80;;;8.70
67822;BMP180;54434;50.096;20.082;2023-05-07T02:07:13;99027.60;;;8.60
67822;BMP180;54434;50.096;20.082;2023-05-07T02:09:50;99026.20;;;8.60
67822;BMP180;54434;50.096;20.082;2023-05-07T02:12:27;99026.00;;;8.50
67822;BMP180;54434;50.096;20.082;2023-05-07T02:15:04;99025.40;;;8.50
67822;BMP180;54434;50.096;20.082;2023-05-07T02:18:03;99026.60;;;8.50
67822;BMP180;54434;50.096;20.082;2023-05-07T02:20:41;99023.20;;;8.46
67822;BMP180;54434;50.096;20.082;2023-05-07T02:23:17;99027.00;;;8.40
67822;BMP180;54434;50.096;20.082;2023-05-07T02:25:54;99030.20;;;8.40
67822;BMP180;54434;50.096;20.082;2023-05-07T02:28:30;99029.60;;;8.40
67822;BMP180;54434;50.096;20.082;2023-05-07T02:31:11;99029.20;;;8.40
67822;BMP180;54434;50.096;20.082;2023-05-07T02:33:47;99025.20;;;8.38
67822;BMP180;54434;50.096;20.082;2023-05-07T02:36:24;99027.20;;;8.38
67822;BMP180;54434;50.096;20.082;2023-05-07T02:39:09;99031.60;;;8.38
67822;BMP180;54434;50.096;20.082;2023-05-07T02:41:45;99033.60;;;8.40
67822;BMP180;54434;50.096;20.082;2023-05-07T02:44:22;99037.20;;;8.40
67822;BMP180;54434;50.096;20.082;2023-05-07T02:46:59;99035.20;;;8.40
67822;BMP180;54434;50.096;20.082;2023-05-07T02:49:36;99040.40;;;8.30
67822;BMP180;54434;50.096;20.082;2023-05-07T02:52:14;99042.40;;;8.30
67822;BMP180;54434;50.096;20.082;2023-05-07T02:54:50;99042.00;;;8.30
67822;BMP180;54434;50.096;20.082;2023-05-07T02:57:27;99041.40;;;8.30
67822;BMP180;54434;50.096;20.082;2023-05-07T03:00:15;99047.60;;;8.30
67822;BMP180;54434;50.096;20.082;2023-05-07T03:02:59;99051.60;;;8.30
67822;BMP180;54434;50.096;20.082;2023-05-07T03:05:36;99054.80;;;8.20
67822;BMP180;54434;50.096;20.082;2023-05-07T03:08:13;99052.40;;;8.20
67822;BMP180;54434;50.096;20.082;2023-05-07T03:10:50;99054.80;;;8.20
67822;BMP180;54434;50.096;20.082;2023-05-07T03:13:26;99055.80;;;8.20
67822;BMP180;54434;50.096;20.082;2023-05-07T03:16:04;99063.40;;;8.20
67822;BMP180;54434;50.096;20.082;2023-05-07T03:18:40;99066.60;;;8.10
67822;BMP180;54434;50.096;20.082;2023-05-07T03:21:17;99071.60;;;8.10
67822;BMP180;54434;50.096;20.082;2023-05-07T03:23:53;99069.60;;;8.12
67822;BMP180;54434;50.096;20.082;2023-05-07T03:26:29;99074.00;;;8.10
67822;BMP180;54434;50.096;20.082;2023-05-07T03:29:06;99075.60;;;8.10
67822;BMP180;54434;50.096;20.082;2023-05-07T03:31:42;99075.80;;;8.10
67822;BMP180;54434;50.096;20.082;2023-05-07T03:34:19;99078.40;;;8.10
67822;BMP180;54434;50.096;20.082;2023-05-07T03:36:57;99081.80;;;8.10
67822;BMP180;54434;50.096;20.082;2023-05-07T03:39:33;99087.60;;;8.10
67822;BMP180;54434;50.096;20.082;2023-05-07T03:42:11;99090.40;;;8.06
67822;BMP180;54434;50.096;20.082;2023-05-07T03:44:48;99095.00;;;8.00
67822;BMP180;54434;50.096;20.082;2023-05-07T03:47:25;99096.00;;;8.00
67822;BMP180;54434;50.096;20.082;2023-05-07T03:50:02;99103.00;;;7.90
67822;BMP180;54434;50.096;20.082;2023-05-07T03:52:39;99111.80;;;7.90
67822;BMP180;54434;50.096;20.082;2023-05-07T03:55:15;99107.40;;;7.90
67822;BMP180;54434;50.096;20.082;2023-05-07T03:57:56;99112.00;;;7.82
67822;BMP180;54434;50.096;20.082;2023-05-07T04:00:33;99113.20;;;7.80
67822;BMP180;54434;50.096;20.082;2023-05-07T04:03:20;99113.40;;;7.80
67822;BMP180;54434;50.096;20.082;2023-05-07T04:05:57;99110.80;;;7.80
67822;BMP180;54434;50.096;20.082;2023-05-07T04:08:34;99116.00;;;7.80
67822;BMP180;54434;50.096;20.082;2023-05-07T04:11:11;99117.80;;;7.80
67822;BMP180;54434;50.096;20.082;2023-05-07T04:13:47;99120.40;;;7.80
67822;BMP180;54434;50.096;20.082;2023-05-07T04:16:25;99117.60;;;7.80
67822;BMP180;54434;50.096;20.082;2023-05-07T04:19:01;99123.00;;;7.80
67822;BMP180;54434;50.096;20.082;2023-05-07T04:21:38;99125.00;;;7.80
67822;BMP180;54434;50.096;20.082;2023-05-07T04:24:15;99125.20;;;7.80
67822;BMP180;54434;50.096;20.082;2023-05-07T04:26:52;99123.80;;;7.80
67822;BMP180;54434;50.096;20.082;2023-05-07T04:29:30;99131.80;;;7.80
67822;BMP180;54434;50.096;20.082;2023-05-07T04:32:07;99125.40;;;7.70
67822;BMP180;54434;50.096;20.082;2023-05-07T04:34:45;99133.20;;;7.70
67822;BMP180;54434;50.096;20.082;2023-05-07T04:37:22;99138.00;;;7.70
67822;BMP180;54434;50.096;20.082;2023-05-07T04:39:58;99142.00;;;7.70
67822;BMP180;54434;50.096;20.082;2023-05-07T04:42:36;99146.40;;;7.70
67822;BMP180;54434;50.096;20.082;2023-05-07T04:45:13;99147.60;;;7.70
67822;BMP180;54434;50.096;20.082;2023-05-07T04:47:50;99150.80;;;7.70
67822;BMP180;54434;50.096;20.082;2023-05-07T04:50:26;99154.00;;;7.70
67822;BMP180;54434;50.096;20.082;2023-05-07T04:53:05;99158.20;;;7.70
67822;BMP180;54434;50.096;20.082;2023-05-07T04:55:42;99159.40;;;7.70
67822;BMP180;54434;50.096;20.082;2023-05-07T04:58:18;99168.40;;;7.70
67822;BMP180;54434;50.096;20.082;2023-05-07T05:00:54;99165.20;;;7.62
67822;BMP180;54434;50.096;20.082;2023-05-07T05:03:31;99176.20;;;7.62
67822;BMP180;54434;50.096;20.082;2023-05-07T05:06:09;99174.80;;;7.60
67822;BMP180;54434;50.096;20.082;2023-05-07T05:08:46;99173.00;;;7.60
67822;BMP180;54434;50.096;20.082;2023-05-07T05:11:22;99181.20;;;7.60
67822;BMP180;54434;50.096;20.082;2023-05-07T05:14:00;99183.20;;;7.60
67822;BMP180;54434;50.096;20.082;2023-05-07T05:16:37;99186.20;;;7.50
67822;BMP180;54434;50.096;20.082;2023-05-07T05:19:13;99183.00;;;7.50
67822;BMP180;54434;50.096;20.082;2023-05-07T05:21:51;99190.80;;;7.50
67822;BMP180;54434;50.096;20.082;2023-05-07T05:24:27;99195.00;;;7.50
67822;BMP180;54434;50.096;20.082;2023-05-07T05:27:04;99199.80;;;7.46
67822;BMP180;54434;50.096;20.082;2023-05-07T05:29:41;99201.20;;;7.40
67822;BMP180;54434;50.096;20.082;2023-05-07T05:32:17;99203.60;;;7.40
67822;BMP180;54434;50.096;20.082;2023-05-07T05:34:54;99212.20;;;7.40
67822;BMP180;54434;50.096;20.082;2023-05-07T05:37:31;99216.60;;;7.40
67822;BMP180;54434;50.096;20.082;2023-05-07T05:40:10;99220.00;;;7.40
67822;BMP180;54434;50.096;20.082;2023-05-07T05:42:47;99221.60;;;7.30
67822;BMP180;54434;50.096;20.082;2023-05-07T05:45:24;99226.20;;;7.30
67822;BMP180;54434;50.096;20.082;2023-05-07T05:48:03;99230.80;;;7.24
67822;BMP180;54434;50.096;20.082;2023-05-07T05:50:41;99234.00;;;7.20
67822;BMP180;54434;50.096;20.082;2023-05-07T05:53:18;99239.40;;;7.18
67822;BMP180;54434;50.096;20.082;2023-05-07T05:55:54;99242.00;;;7.10
67822;BMP180;54434;50.096;20.082;2023-05-07T05:58:32;99244.80;;;7.02
67822;BMP180;54434;50.096;20.082;2023-05-07T06:01:10;99246.80;;;7.00
67822;BMP180;54434;50.096;20.082;2023-05-07T06:03:47;99248.20;;;7.00
67822;BMP180;54434;50.096;20.082;2023-05-07T06:06:23;99248.80;;;7.00
67822;BMP180;54434;50.096;20.082;2023-05-07T06:09:01;99251.00;;;6.94
67822;BMP180;54434;50.096;20.082;2023-05-07T06:11:43;99253.80;;;7.00
67822;BMP180;54434;50.096;20.082;2023-05-07T06:14:20;99255.40;;;6.90
67822;BMP180;54434;50.096;20.082;2023-05-07T06:16:56;99256.40;;;6.98
67822;BMP180;54434;50.096;20.082;2023-05-07T06:19:33;99255.40;;;7.00
67822;BMP180;54434;50.096;20.082;2023-05-07T06:22:10;99254.80;;;7.00
67822;BMP180;54434;50.096;20.082;2023-05-07T06:24:47;99261.40;;;7.00
67822;BMP180;54434;50.096;20.082;2023-05-07T06:27:23;99258.60;;;7.00
67822;BMP180;54434;50.096;20.082;2023-05-07T06:30:00;99254.40;;;7.00
67822;BMP180;54434;50.096;20.082;2023-05-07T06:32:37;99256.40;;;7.10
67822;BMP180;54434;50.096;20.082;2023-05-07T06:35:14;99259.80;;;7.10
67822;BMP180;54434;50.096;20.082;2023-05-07T06:37:51;99264.00;;;7.10
67822;BMP180;54434;50.096;20.082;2023-05-07T06:40:31;99264.40;;;7.10
67822;BMP180;54434;50.096;20.082;2023-05-07T06:43:08;99260.00;;;7.20
67822;BMP180;54434;50.096;20.082;2023-05-07T06:46:20;99268.40;;;7.20
67822;BMP180;54434;50.096;20.082;2023-05-07T06:48:58;99267.20;;;7.28
67822;BMP180;54434;50.096;20.082;2023-05-07T06:51:34;99265.40;;;7.30
67822;BMP180;54434;50.096;20.082;2023-05-07T06:54:12;99270.80;;;7.38
67822;BMP180;54434;50.096;20.082;2023-05-07T06:56:48;99275.60;;;7.40
67822;BMP180;54434;50.096;20.082;2023-05-07T06:59:26;99274.40;;;7.40
67822;BMP180;54434;50.096;20.082;2023-05-07T07:02:02;99273.80;;;7.50
67822;BMP180;54434;50.096;20.082;2023-05-07T07:04:39;99282.80;;;7.50
67822;BMP180;54434;50.096;20.082;2023-05-07T07:07:17;99285.40;;;7.50
67822;BMP180;54434;50.096;20.082;2023-05-07T07:09:55;99289.00;;;7.50
67822;BMP180;54434;50.096;20.082;2023-05-07T07:12:31;99288.60;;;7.50
67822;BMP180;54434;50.096;20.082;2023-05-07T07:15:11;99293.60;;;7.50
67822;BMP180;54434;50.096;20.082;2023-05-07T07:17:47;99304.60;;;7.50
67822;BMP180;54434;50.096;20.082;2023-05-07T07:20:24;99311.40;;;7.50
67822;BMP180;54434;50.096;20.082;2023-05-07T07:23:01;99310.80;;;7.50
67822;BMP180;54434;50.096;20.082;2023-05-07T07:25:38;99312.00;;;7.50
67822;BMP180;54434;50.096;20.082;2023-05-07T07:28:14;99316.60;;;7.54
67822;BMP180;54434;50.096;20.082;2023-05-07T07:30:51;99318.00;;;7.52
67822;BMP180;54434;50.096;20.082;2023-05-07T07:33:27;99322.00;;;7.50
67822;BMP180;54434;50.096;20.082;2023-05-07T07:36:05;99325.20;;;7.58
67822;BMP180;54434;50.096;20.082;2023-05-07T07:38:42;99323.80;;;7.60
67822;BMP180;54434;50.096;20.082;2023-05-07T07:41:18;99331.20;;;7.60
67822;BMP180;54434;50.096;20.082;2023-05-07T07:43:55;99334.00;;;7.52
67822;BMP180;54434;50.096;20.082;2023-05-07T07:46:31;99336.80;;;7.54
67822;BMP180;54434;50.096;20.082;2023-05-07T07:49:07;99342.00;;;7.50
67822;BMP180;54434;50.096;20.082;2023-05-07T07:51:44;99345.40;;;7.50
67822;BMP180;54434;50.096;20.082;2023-05-07T07:54:20;99349.80;;;7.50
67822;BMP180;54434;50.096;20.082;2023-05-07T07:56:57;99348.60;;;7.50
67822;BMP180;54434;50.096;20.082;2023-05-07T07:59:34;99347.20;;;7.40
67822;BMP180;54434;50.096;20.082;2023-05-07T08:02:10;99355.60;;;7.40
67822;BMP180;54434;50.096;20.082;2023-05-07T08:04:47;99355.40;;;7.40
67822;BMP180;54434;50.096;20.082;2023-05-07T08:07:24;99356.40;;;7.32
67822;BMP180;54434;50.096;20.082;2023-05-07T08:10:02;99359.00;;;7.30
67822;BMP180;54434;50.096;20.082;2023-05-07T08:12:40;99365.60;;;7.30
67822;BMP180;54434;50.096;20.082;2023-05-07T08:15:17;99363.20;;;7.26
67822;BMP180;54434;50.096;20.082;2023-05-07T08:17:54;99361.60;;;7.30
67822;BMP180;54434;50.096;20.082;2023-05-07T08:20:33;99363.20;;;7.22
67822;BMP180;54434;50.096;20.082;2023-05-07T08:23:15;99364.00;;;7.24
67822;BMP180;54434;50.096;20.082;2023-05-07T08:25:52;99371.80;;;7.20
67822;BMP180;54434;50.096;20.082;2023-05-07T08:28:30;99381.00;;;7.20
67822;BMP180;54434;50.096;20.082;2023-05-07T08:31:07;99385.40;;;7.20
67822;BMP180;54434;50.096;20.082;2023-05-07T08:33:45;99390.20;;;7.18
67822;BMP180;54434;50.096;20.082;2023-05-07T08:36:21;99396.20;;;7.10
67822;BMP180;54434;50.096;20.082;2023-05-07T08:38:58;99399.20;;;7.10
67822;BMP180;54434;50.096;20.082;2023-05-07T08:41:36;99400.80;;;7.10
67822;BMP180;54434;50.096;20.082;2023-05-07T08:44:15;99404.60;;;7.10
67822;BMP180;54434;50.096;20.082;2023-05-07T08:46:55;99404.80;;;7.10
67822;BMP180;54434;50.096;20.082;2023-05-07T08:49:34;99408.80;;;7.10
67822;BMP180;54434;50.096;20.082;2023-05-07T08:52:12;99413.00;;;7.10
67822;BMP180;54434;50.096;20.082;2023-05-07T08:54:49;99413.40;;;7.10
67822;BMP180;54434;50.096;20.082;2023-05-07T08:57:26;99416.00;;;7.10
67822;BMP180;54434;50.096;20.082;2023-05-07T09:00:04;99415.80;;;7.10
67822;BMP180;54434;50.096;20.082;2023-05-07T09:02:43;99421.20;;;7.10
67822;BMP180;54434;50.096;20.082;2023-05-07T09:05:20;99422.40;;;7.10
67822;BMP180;54434;50.096;20.082;2023-05-07T09:08:01;99428.80;;;7.10
67822;BMP180;54434;50.096;20.082;2023-05-07T09:10:39;99427.40;;;7.10
67822;BMP180;54434;50.096;20.082;2023-05-07T09:13:16;99432.20;;;7.10
67822;BMP180;54434;50.096;20.082;2023-05-07T09:15:54;99430.40;;;7.20
67822;BMP180;54434;50.096;20.082;2023-05-07T09:18:31;99429.20;;;7.20
67822;BMP180;54434;50.096;20.082;2023-05-07T09:21:11;99427.20;;;7.20
67822;BMP180;54434;50.096;20.082;2023-05-07T09:23:49;99425.00;;;7.20
67822;BMP180;54434;50.096;20.082;2023-05-07T09:26:27;99438.60;;;7.30
67822;BMP180;54434;50.096;20.082;2023-05-07T09:29:04;99440.80;;;7.30
67822;BMP180;54434;50.096;20.082;2023-05-07T09:31:42;99444.00;;;7.30
67822;BMP180;54434;50.096;20.082;2023-05-07T09:34:20;99449.40;;;7.40
67822;BMP180;54434;50.096;20.082;2023-05-07T09:36:58;99452.60;;;7.40
67822;BMP180;54434;50.096;20.082;2023-05-07T09:39:46;99457.20;;;7.44
67822;BMP180;54434;50.096;20.082;2023-05-07T09:42:29;99453.80;;;7.50
67822;BMP180;54434;50.096;20.082;2023-05-07T09:45:11;99456.20;;;7.50
67822;BMP180;54434;50.096;20.082;2023-05-07T09:47:53;99460.00;;;7.50
67822;BMP180;54434;50.096;20.082;2023-05-07T09:50:39;99459.40;;;7.50
67822;BMP180;54434;50.096;20.082;2023-05-07T09:53:19;99469.20;;;7.50
67822;BMP180;54434;50.096;20.082;2023-05-07T09:55:58;99465.60;;;7.50
67822;BMP180;54434;50.096;20.082;2023-05-07T09:58:43;99473.80;;;7.50
67822;BMP180;54434;50.096;20.082;2023-05-07T10:01:25;99473.20;;;7.50
67822;BMP180;54434;50.096;20.082;2023-05-07T10:04:05;99475.60;;;7.50
67822;BMP180;54434;50.096;20.082;2023-05-07T10:06:44;99478.80;;;7.42
67822;BMP180;54434;50.096;20.082;2023-05-07T10:09:21;99477.20;;;7.40
67822;BMP180;54434;50.096;20.082;2023-05-07T10:12:00;99476.00;;;7.40
67822;BMP180;54434;50.096;20.082;2023-05-07T10:14:38;99476.80;;;7.40
67822;BMP180;54434;50.096;20.082;2023-05-07T10:17:17;99478.20;;;7.40
67822;BMP180;54434;50.096;20.082;2023-05-07T10:19:56;99478.20;;;7.40
67822;BMP180;54434;50.096;20.082;2023-05-07T10:22:40;99482.00;;;7.38
67822;BMP180;54434;50.096;20.082;2023-05-07T10:25:23;99484.40;;;7.40
67822;BMP180;54434;50.096;20.082;2023-05-07T10:28:08;99489.00;;;7.36
67822;BMP180;54434;50.096;20.082;2023-05-07T10:31:05;99486.60;;;7.30
67822;BMP180;54434;50.096;20.082;2023-05-07T10:33:50;99487.00;;;7.30
67822;BMP180;54434;50.096;20.082;2023-05-07T10:36:29;99489.20;;;7.40
67822;BMP180;54434;50.096;20.082;2023-05-07T10:39:08;99499.80;;;7.40
67822;BMP180;54434;50.096;20.082;2023-05-07T10:41:45;99498.60;;;7.50
67822;BMP180;54434;50.096;20.082;2023-05-07T10:44:31;99502.60;;;7.50
67822;BMP180;54434;50.096;20.082;2023-05-07T10:47:15;99502.60;;;7.54
67822;BMP180;54434;50.096;20.082;2023-05-07T10:50:28;99511.80;;;7.50
67822;BMP180;54434;50.096;20.082;2023-05-07T10:53:26;99508.60;;;7.56
67822;BMP180;54434;50.096;20.082;2023-05-07T10:56:40;99513.60;;;7.60
67822;BMP180;54434;50.096;20.082;2023-05-07T10:59:41;99514.60;;;7.60
67822;BMP180;54434;50.096;20.082;2023-05-07T11:05:46;99517.20;;;7.70
67822;BMP180;54434;50.096;20.082;2023-05-07T11:08:26;99520.40;;;7.72
67822;BMP180;54434;50.096;20.082;2023-05-07T11:11:50;99524.20;;;7.76
67822;BMP180;54434;50.096;20.082;2023-05-07T11:14:49;99524.00;;;7.70
67822;BMP180;54434;50.096;20.082;2023-05-07T11:17:30;99523.80;;;7.70
67822;BMP180;54434;50.096;20.082;2023-05-07T11:20:14;99521.20;;;7.70
67822;BMP180;54434;50.096;20.082;2023-05-07T11:22:59;99525.60;;;7.70
67822;BMP180;54434;50.096;20.082;2023-05-07T11:25:51;99527.80;;;7.70
67822;BMP180;54434;50.096;20.082;2023-05-07T11:28:40;99528.00;;;7.70
67822;BMP180;54434;50.096;20.082;2023-05-07T11:31:24;99526.60;;;7.70
67822;BMP180;54434;50.096;20.082;2023-05-07T11:34:02;99530.00;;;7.80
67822;BMP180;54434;50.096;20.082;2023-05-07T11:36:44;99527.80;;;7.90
67822;BMP180;54434;50.096;20.082;2023-05-07T11:39:32;99532.60;;;8.00
67822;BMP180;54434;50.096;20.082;2023-05-07T11:42:27;99528.00;;;8.06
67822;BMP180;54434;50.096;20.082;2023-05-07T11:45:06;99534.20;;;8.10
67822;BMP180;54434;50.096;20.082;2023-05-07T11:47:44;99538.00;;;8.14
67822;BMP180;54434;50.096;20.082;2023-05-07T11:50:21;99543.00;;;8.14
67822;BMP180;54434;50.096;20.082;2023-05-07T11:52:58;99538.60;;;8.10
67822;BMP180;54434;50.096;20.082;2023-05-07T11:55:35;99541.20;;;8.08
67822;BMP180;54434;50.096;20.082;2023-05-07T11:58:20;99545.60;;;8.00
67822;BMP180;54434;50.096;20.082;2023-05-07T12:00:57;99545.60;;;8.00
67822;BMP180;54434;50.096;20.082;2023-05-07T12:03:35;99553.60;;;7.90
67822;BMP180;54434;50.096;20.082;2023-05-07T12:06:14;99552.80;;;7.90
67822;BMP180;54434;50.096;20.082;2023-05-07T12:08:51;99559.40;;;7.92
67822;BMP180;54434;50.096;20.082;2023-05-07T12:11:30;99561.40;;;8.00
67822;BMP180;54434;50.096;20.082;2023-05-07T12:14:06;99565.20;;;8.00
67822;BMP180;54434;50.096;20.082;2023-05-07T12:16:49;99564.20;;;7.90
67822;BMP180;54434;50.096;20.082;2023-05-07T12:19:27;99567.80;;;7.90
67822;BMP180;54434;50.096;20.082;2023-05-07T12:22:05;99578.40;;;7.80
67822;BMP180;54434;50.096;20.082;2023-05-07T12:24:56;99571.60;;;7.70
67822;BMP180;54434;50.096;20.082;2023-05-07T12:27:36;99571.00;;;7.60
67822;BMP180;54434;50.096;20.082;2023-05-07T12:30:17;99574.00;;;7.60
67822;BMP180;54434;50.096;20.082;2023-05-07T12:32:57;99572.00;;;7.64
67822;BMP180;54434;50.096;20.082;2023-05-07T12:35:39;99570.20;;;7.76
67822;BMP180;54434;50.096;20.082;2023-05-07T12:38:18;99573.40;;;7.80
67822;BMP180;54434;50.096;20.082;2023-05-07T12:40:56;99573.40;;;7.90
67822;BMP180;54434;50.096;20.082;2023-05-07T12:43:33;99576.80;;;7.90
67822;BMP180;54434;50.096;20.082;2023-05-07T12:46:11;99578.60;;;7.82
67822;BMP180;54434;50.096;20.082;2023-05-07T12:48:49;99581.20;;;7.80
67822;BMP180;54434;50.096;20.082;2023-05-07T12:51:26;99582.40;;;7.80
67822;BMP180;54434;50.096;20.082;2023-05-07T12:54:04;99592.40;;;7.80
67822;BMP180;54434;50.096;20.082;2023-05-07T12:56:42;99589.40;;;7.82
67822;BMP180;54434;50.096;20.082;2023-05-07T12:59:18;99583.80;;;7.90
67822;BMP180;54434;50.096;20.082;2023-05-07T13:01:56;99583.80;;;7.90
67822;BMP180;54434;50.096;20.082;2023-05-07T13:04:33;99582.00;;;7.90
67822;BMP180;54434;50.096;20.082;2023-05-07T13:07:10;99586.20;;;7.90
67822;BMP180;54434;50.096;20.082;2023-05-07T13:09:47;99586.20;;;7.90
67822;BMP180;54434;50.096;20.082;2023-05-07T13:12:25;99596.40;;;7.90
67822;BMP180;54434;50.096;20.082;2023-05-07T13:15:01;99595.80;;;7.82
67822;BMP180;54434;50.096;20.082;2023-05-07T13:17:38;99601.00;;;7.80
67822;BMP180;54434;50.096;20.082;2023-05-07T13:20:16;99600.60;;;7.70
67822;BMP180;54434;50.096;20.082;2023-05-07T13:22:52;99600.60;;;7.70
67822;BMP180;54434;50.096;20.082;2023-05-07T13:25:29;99595.80;;;7.70
67822;BMP180;54434;50.096;20.082;2023-05-07T13:28:06;99600.20;;;7.70
67822;BMP180;54434;50.096;20.082;2023-05-07T13:30:45;99611.20;;;7.70
67822;BMP180;54434;50.096;20.082;2023-05-07T13:33:22;99610.60;;;7.70
67822;BMP180;54434;50.096;20.082;2023-05-07T13:35:59;99602.20;;;7.70
67822;BMP180;54434;50.096;20.082;2023-05-07T13:38:35;99604.80;;;7.70
67822;BMP180;54434;50.096;20.082;2023-05-07T13:41:12;99605.20;;;7.80
67822;BMP180;54434;50.096;20.082;2023-05-07T13:43:49;99604.40;;;7.80
67822;BMP180;54434;50.096;20.082;2023-05-07T13:46:26;99611.40;;;7.80
67822;BMP180;54434;50.096;20.082;2023-05-07T13:49:02;99611.20;;;7.80
67822;BMP180;54434;50.096;20.082;2023-05-07T13:51:39;99615.00;;;7.80
67822;BMP180;54434;50.096;20.082;2023-05-07T13:54:16;99611.60;;;7.80
67822;BMP180;54434;50.096;20.082;2023-05-07T13:56:52;99611.80;;;7.78
67822;BMP180;54434;50.096;20.082;2023-05-07T13:59:30;99614.40;;;7.74
67822;BMP180;54434;50.096;20.082;2023-05-07T14:02:07;99613.00;;;7.70
67822;BMP180;54434;50.096;20.082;2023-05-07T14:04:45;99615.00;;;7.70
67822;BMP180;54434;50.096;20.082;2023-05-07T14:07:22;99611.60;;;7.74
67822;BMP180;54434;50.096;20.082;2023-05-07T14:09:59;99618.20;;;7.80
67822;BMP180;54434;50.096;20.082;2023-05-07T14:12:38;99614.60;;;7.74
67822;BMP180;54434;50.096;20.082;2023-05-07T14:15:16;99616.60;;;7.70
67822;BMP180;54434;50.096;20.082;2023-05-07T14:17:53;99617.20;;;7.70
67822;BMP180;54434;50.096;20.082;2023-05-07T14:20:30;99616.80;;;7.60
67822;BMP180;54434;50.096;20.082;2023-05-07T14:23:07;99621.00;;;7.60
67822;BMP180;54434;50.096;20.082;2023-05-07T14:25:44;99631.80;;;7.60
67822;BMP180;54434;50.096;20.082;2023-05-07T14:28:23;99631.20;;;7.50
67822;BMP180;54434;50.096;20.082;2023-05-07T14:31:00;99632.40;;;7.50
67822;BMP180;54434;50.096;20.082;2023-05-07T14:33:37;99639.60;;;7.50
67822;BMP180;54434;50.096;20.082;2023-05-07T14:36:16;99638.80;;;7.50
67822;BMP180;54434;50.096;20.082;2023-05-07T14:38:55;99639.80;;;7.50
67822;BMP180;54434;50.096;20.082;2023-05-07T14:41:34;99643.60;;;7.50
67822;BMP180;54434;50.096;20.082;2023-05-07T14:44:12;99646.80;;;7.50
67822;BMP180;54434;50.096;20.082;2023-05-07T14:46:48;99648.60;;;7.50
67822;BMP180;54434;50.096;20.082;2023-05-07T14:49:25;99650.00;;;7.40
67822;BMP180;54434;50.096;20.082;2023-05-07T14:52:03;99645.40;;;7.40
67822;BMP180;54434;50.096;20.082;2023-05-07T14:54:41;99648.80;;;7.30
67822;BMP180;54434;50.096;20.082;2023-05-07T14:57:18;99649.00;;;7.30
67822;BMP180;54434;50.096;20.082;2023-05-07T14:59:55;99657.40;;;7.20
67822;BMP180;54434;50.096;20.082;2023-05-07T15:02:32;99661.20;;;7.20
67822;BMP180;54434;50.096;20.082;2023-05-07T15:05:11;99663.40;;;7.20
67822;BMP180;54434;50.096;20.082;2023-05-07T15:07:49;99666.80;;;7.20
67822;BMP180;54434;50.096;20.082;2023-05-07T15:10:27;99671.40;;;7.20
67822;BMP180;54434;50.096;20.082;2023-05-07T15:13:03;99671.80;;;7.10
67822;BMP180;54434;50.096;20.082;2023-05-07T15:15:41;99671.00;;;7.10
67822;BMP180;54434;50.096;20.082;2023-05-07T15:18:19;99675.20;;;7.10